Terminal Aerodrome Forecast
Issued by NWS

Home | Current Version | Previous Version | Graphics & Text | Print | Product List | Glossary Off
Versions: 1 2 3 4 5 6 7 8 9 10 11 12 13 14 15 16 17 18 19

000
FTUS43 KDDC 250300 AAF
TAFGCK
TAF AMD
KGCK 250300Z 2503/2524 36019G28KT P6SM -RA BKN012 BKN021 OVC045
     FM250400 36015G25KT 6SM -SHRA OVC020
     FM250500 35018KT P6SM OVC015
     FM250600 34018KT P6SM OVC025
     FM251600 34015G25KT P6SM OVC025=

USA.gov is the U.S. government's official web portal to all federal, state and local government web resources and services.